Time;durP1;ratioP1;P1;durP2;ratioP2;P2;SDS_P1;SDS_P2;PMS_P1;PMS_P2;Temp;Humidity;BMP_temperature;BMP_pressure;BME280_temperature;BME280_humidity;BME280_pressure;Samples;Min_cycle;Max_cycle;Signal;HPM_P1;HPM_P2
2023/04/07 00:02:25;;;;;;;16.95;10.73;;;;;;;-146.26;100.00;59860.63;4985594;28;20046;-74
2023/04/07 00:04:51;;;;;;;10.13;8.15;;;;;;;-146.26;100.00;59860.63;4983946;28;20719;-73
2023/04/07 00:07:16;;;;;;;17.88;9.27;;;;;;;-146.26;100.00;59860.63;4984735;28;20050;-73
2023/04/07 00:09:42;;;;;;;14.25;8.85;;;;;;;-146.26;100.00;59860.63;4987707;28;20121;-73
2023/04/07 00:12:07;;;;;;;18.33;10.13;;;;;;;-146.26;100.00;59860.63;4987903;28;20042;-73
2023/04/07 00:14:33;;;;;;;13.88;9.48;;;;;;;-146.26;100.00;59860.63;4984484;28;20046;-76
2023/04/07 00:17:00;;;;;;;13.60;10.30;;;;;;;-146.26;100.00;59860.63;4987203;28;20053;-74
2023/04/07 00:19:25;;;;;;;14.70;8.63;;;;;;;-146.26;100.00;59860.63;4986369;28;20034;-74
2023/04/07 00:21:52;;;;;;;13.25;9.43;;;;;;;-146.26;100.00;59860.63;4988779;28;20077;-75
2023/04/07 00:24:17;;;;;;;14.20;8.57;;;;;;;-146.26;100.00;59860.63;4986854;28;20042;-74
2023/04/07 00:26:43;;;;;;;13.30;8.02;;;;;;;-146.26;100.00;59860.63;4983994;28;20046;-75
2023/04/07 00:29:08;;;;;;;13.02;8.50;;;;;;;-146.26;100.00;59860.63;4983936;28;20048;-74
2023/04/07 00:31:34;;;;;;;13.88;8.57;;;;;;;-146.26;100.00;59860.63;4984859;28;20049;-74
2023/04/07 00:33:59;;;;;;;17.25;10.52;;;;;;;-146.26;100.00;59860.63;4987548;28;20031;-74
2023/04/07 00:36:25;;;;;;;14.35;9.35;;;;;;;-146.26;100.00;59860.63;4985945;28;20505;-74
2023/04/07 00:38:51;;;;;;;18.17;8.80;;;;;;;-146.26;100.00;59860.63;4987269;28;20057;-74
2023/04/07 00:41:16;;;;;;;17.60;8.80;;;;;;;-146.26;100.00;59860.63;4987311;28;20750;-74
2023/04/07 00:43:42;;;;;;;12.55;9.23;;;;;;;-146.26;100.00;59860.63;4984343;28;20092;-74
2023/04/07 00:46:08;;;;;;;15.88;10.35;;;;;;;-146.26;100.00;59860.63;4988002;28;20050;-74
2023/04/07 00:48:33;;;;;;;14.40;9.00;;;;;;;-146.26;100.00;59860.63;4987394;28;20061;-75
2023/04/07 00:50:59;;;;;;;17.73;9.73;;;;;;;-146.26;100.00;59860.63;4987431;28;20141;-74
2023/04/07 00:53:25;;;;;;;16.17;11.85;;;;;;;-146.26;100.00;59860.63;4991562;28;20042;-75
2023/04/07 00:55:50;;;;;;;24.45;10.70;;;;;;;-146.26;100.00;59860.63;4987676;28;20046;-74
2023/04/07 00:58:15;;;;;;;14.13;10.15;;;;;;;-146.26;100.00;59860.63;4988295;28;20053;-74
2023/04/07 01:01:23;;;;;;;19.98;10.52;;;;;;;-146.26;100.00;59860.63;4987775;28;20829;-74
2023/04/07 01:03:56;;;;;;;15.43;10.65;;;;;;;-146.26;100.00;59860.63;4982749;28;20085;-75
2023/04/07 01:06:28;;;;;;;13.85;9.52;;;;;;;-146.26;100.00;59860.63;4991434;28;20054;-75
2023/04/07 01:09:00;;;;;;;13.80;11.07;;;;;;;-146.26;100.00;59860.63;4990199;28;20875;-75
2023/04/07 01:11:56;;;;;;;17.58;8.80;;;;;;;-146.26;100.00;59860.63;4988696;28;20066;-75
2023/04/07 01:14:23;;;;;;;20.95;10.48;;;;;;;-146.26;100.00;59860.63;4992926;28;20462;-75
2023/04/07 01:16:50;;;;;;;16.92;9.05;;;;;;;-146.26;100.00;59860.63;4985330;28;20153;-73
2023/04/07 01:19:34;;;;;;;17.15;9.65;;;;;;;-146.26;100.00;59860.63;4985556;28;20593;-74
2023/04/07 01:22:03;;;;;;;17.20;9.65;;;;;;;-146.26;100.00;59860.63;4987789;28;20133;-73
2023/04/07 01:24:57;;;;;;;23.52;11.10;;;;;;;-146.26;100.00;59860.63;4983409;28;20130;-74
2023/04/07 01:27:53;;;;;;;16.25;9.52;;;;;;;-146.26;100.00;59860.63;4980297;28;20043;-74
2023/04/07 01:30:21;;;;;;;15.70;9.75;;;;;;;-146.26;100.00;59860.63;4981440;28;20165;-74
2023/04/07 01:32:51;;;;;;;17.65;9.52;;;;;;;-146.26;100.00;59860.63;4986995;28;20038;-75
2023/04/07 01:35:18;;;;;;;13.13;9.32;;;;;;;-146.26;100.00;59860.63;4980522;28;20050;-75
2023/04/07 01:37:47;;;;;;;16.25;10.43;;;;;;;-146.26;100.00;59860.63;4985638;28;20097;-74
2023/04/07 01:40:15;;;;;;;18.35;10.40;;;;;;;-146.26;100.00;59860.63;4981672;28;20041;-75
2023/04/07 01:42:42;;;;;;;19.10;10.27;;;;;;;-146.26;100.00;59860.63;4983426;28;20398;-73
2023/04/07 01:45:08;;;;;;;13.07;9.75;;;;;;;-146.26;100.00;59860.63;4983453;28;20915;-75
2023/04/07 01:47:38;;;;;;;15.05;11.07;;;;;;;-146.26;100.00;59860.63;4986532;28;20129;-75
2023/04/07 01:50:08;;;;;;;18.20;10.52;;;;;;;-146.26;100.00;59860.63;4986279;28;20506;-75
2023/04/07 01:52:35;;;;;;;16.65;10.85;;;;;;;-146.26;100.00;59860.63;4979921;28;20387;-75
2023/04/07 01:55:01;;;;;;;15.63;10.43;;;;;;;-146.26;100.00;59860.63;4988195;28;20124;-76
2023/04/07 01:57:26;;;;;;;16.83;9.57;;;;;;;-146.26;100.00;59860.63;4982691;28;20512;-77
2023/04/07 01:59:52;;;;;;;21.10;10.45;;;;;;;-146.26;100.00;59860.63;4990369;28;20137;-78
2023/04/07 02:02:18;;;;;;;17.38;10.15;;;;;;;-146.26;100.00;59860.63;4980667;28;20065;-76
2023/04/07 02:04:54;;;;;;;16.38;10.80;;;;;;;-146.26;100.00;59860.63;4988563;28;20435;-76
2023/04/07 02:07:28;;;;;;;18.73;9.52;;;;;;;-146.26;100.00;59860.63;4987562;28;20065;-76
2023/04/07 02:09:57;;;;;;;14.93;9.65;;;;;;;-146.26;100.00;59860.63;4986139;28;20049;-75
2023/04/07 02:12:27;;;;;;;17.88;12.50;;;;;;;-146.26;100.00;59860.63;4994526;28;20046;-76
2023/04/07 02:14:55;;;;;;;15.70;9.88;;;;;;;-146.26;100.00;59860.63;5001444;28;20054;-75
2023/04/07 02:17:23;;;;;;;23.30;11.75;;;;;;;-146.26;100.00;59860.63;4985748;28;20046;-76
2023/04/07 02:19:51;;;;;;;17.33;11.27;;;;;;;-146.26;100.00;59860.63;4988738;28;20506;-75
2023/04/07 02:22:17;;;;;;;17.95;11.20;;;;;;;-146.26;100.00;59860.63;4984719;28;20080;-75
2023/04/07 02:24:43;;;;;;;18.20;11.27;;;;;;;-146.26;100.00;59860.63;4987783;28;20035;-74
2023/04/07 02:27:08;;;;;;;14.82;10.80;;;;;;;-146.26;100.00;59860.63;4988386;28;20046;-74
2023/04/07 02:29:34;;;;;;;26.20;12.80;;;;;;;-146.26;100.00;59860.63;4989896;28;20042;-74
2023/04/07 02:31:59;;;;;;;21.92;11.18;;;;;;;-146.26;100.00;59860.63;4989479;28;20085;-74
2023/04/07 02:34:25;;;;;;;19.50;12.55;;;;;;;-146.26;100.00;59860.63;4987132;28;20069;-75
2023/04/07 02:36:50;;;;;;;18.00;12.38;;;;;;;-146.26;100.00;59860.63;4986937;28;20141;-74
2023/04/07 02:39:16;;;;;;;15.07;10.70;;;;;;;-146.26;100.00;59860.63;4989616;28;20043;-73
2023/04/07 02:41:42;;;;;;;19.42;12.07;;;;;;;-146.26;100.00;59860.63;4987753;28;20525;-74
2023/04/07 02:44:07;;;;;;;18.75;12.13;;;;;;;-146.26;100.00;59860.63;4980482;28;20059;-74
2023/04/07 02:46:33;;;;;;;19.33;12.55;;;;;;;-146.26;100.00;59860.63;4986216;28;20533;-74
2023/04/07 02:48:58;;;;;;;15.50;11.85;;;;;;;-146.26;100.00;59860.63;4981173;28;20752;-74
2023/04/07 02:51:24;;;;;;;17.83;11.77;;;;;;;-146.26;100.00;59860.63;4982387;28;20787;-76
2023/04/07 02:53:49;;;;;;;18.38;9.93;;;;;;;-146.26;100.00;59860.63;4988093;28;20073;-76
2023/04/07 02:56:15;;;;;;;23.48;13.25;;;;;;;-146.26;100.00;59860.63;4989413;28;20082;-74
2023/04/07 02:58:41;;;;;;;22.27;12.82;;;;;;;-146.26;100.00;59860.63;4989682;28;20053;-74
2023/04/07 03:01:06;;;;;;;21.85;11.40;;;;;;;-146.26;100.00;59860.63;4988978;28;20026;-74
2023/04/07 03:03:32;;;;;;;20.95;13.27;;;;;;;-146.26;100.00;59860.63;4986024;28;20435;-74
2023/04/07 03:05:58;;;;;;;15.63;11.23;;;;;;;-146.26;100.00;59860.63;4988458;28;20058;-74
2023/04/07 03:08:23;;;;;;;19.20;11.73;;;;;;;-146.26;100.00;59860.63;4985179;28;20049;-75
2023/04/07 03:10:49;;;;;;;15.88;10.52;;;;;;;-146.26;100.00;59860.63;4986703;28;20510;-74
2023/04/07 03:13:17;;;;;;;19.00;11.73;;;;;;;-146.26;100.00;59860.63;4987143;28;20064;-74
2023/04/07 03:15:43;;;;;;;17.05;10.98;;;;;;;-146.26;100.00;59860.63;4988411;28;20117;-74
2023/04/07 03:18:10;;;;;;;16.45;12.23;;;;;;;-146.26;100.00;59860.63;4982237;28;20570;-74
2023/04/07 03:20:36;;;;;;;16.42;11.15;;;;;;;-146.26;100.00;59860.63;4987790;28;20050;-74
2023/04/07 03:23:02;;;;;;;14.63;11.02;;;;;;;-146.26;100.00;59860.63;4990066;28;20085;-74
2023/04/07 03:25:28;;;;;;;15.25;11.85;;;;;;;-146.26;100.00;59860.63;4987763;28;20038;-73
2023/04/07 03:27:53;;;;;;;16.48;11.30;;;;;;;-146.26;100.00;59860.63;4987326;28;20112;-74
2023/04/07 03:30:19;;;;;;;20.30;12.50;;;;;;;-146.26;100.00;59860.63;4986037;28;20129;-74
2023/04/07 03:32:44;;;;;;;27.20;12.23;;;;;;;-146.26;100.00;59860.63;4981162;28;20054;-75
2023/04/07 03:35:10;;;;;;;15.85;11.93;;;;;;;-146.26;100.00;59860.63;4986406;28;20170;-75
2023/04/07 03:37:35;;;;;;;26.00;13.30;;;;;;;-146.26;100.00;59860.63;4988800;28;20124;-74
2023/04/07 03:40:01;;;;;;;18.60;12.65;;;;;;;-146.26;100.00;59860.63;4984777;28;20518;-76
2023/04/07 03:42:26;;;;;;;17.67;13.35;;;;;;;-146.26;100.00;59860.63;4986885;28;20038;-76
2023/04/07 03:44:52;;;;;;;19.33;12.07;;;;;;;-146.26;100.00;59860.63;4983900;28;20074;-77
2023/04/07 03:47:17;;;;;;;21.33;12.35;;;;;;;-146.26;100.00;59860.63;4985249;28;20105;-75
2023/04/07 03:49:43;;;;;;;22.88;12.00;;;;;;;-146.26;100.00;59860.63;4986259;28;20053;-76
2023/04/07 03:52:09;;;;;;;18.83;13.13;;;;;;;-146.26;100.00;59860.63;4989233;28;20552;-76
2023/04/07 03:54:34;;;;;;;21.77;13.02;;;;;;;-146.26;100.00;59860.63;4986659;28;20046;-76
2023/04/07 03:57:01;;;;;;;16.80;11.15;;;;;;;-146.26;100.00;59860.63;4986553;28;20499;-77
2023/04/07 03:59:27;;;;;;;18.60;12.90;;;;;;;-146.26;100.00;59860.63;4986386;28;20066;-76
2023/04/07 04:01:53;;;;;;;21.65;12.80;;;;;;;-146.26;100.00;59860.63;4987197;28;20062;-75
2023/04/07 04:04:19;;;;;;;18.58;12.63;;;;;;;-146.26;100.00;59860.63;4990424;28;20093;-76
2023/04/07 04:06:45;;;;;;;18.95;13.65;;;;;;;-146.26;100.00;59860.63;4987866;28;20038;-76
2023/04/07 04:09:10;;;;;;;29.13;14.52;;;;;;;-146.26;100.00;59860.63;4984225;28;20495;-77
2023/04/07 04:11:36;;;;;;;23.00;12.88;;;;;;;-146.26;100.00;59860.63;4987156;28;20050;-74
2023/04/07 04:14:01;;;;;;;25.40;14.98;;;;;;;-146.26;100.00;59860.63;4980331;28;20042;-75
2023/04/07 04:16:27;;;;;;;36.22;13.45;;;;;;;-146.26;100.00;59860.63;5014658;28;20132;-75
2023/04/07 04:18:54;;;;;;;21.73;13.20;;;;;;;-146.26;100.00;59860.63;4984652;28;20041;-76
2023/04/07 04:21:19;;;;;;;19.92;12.35;;;;;;;-146.26;100.00;59860.63;4988265;28;20046;-76
2023/04/07 04:23:45;;;;;;;17.58;12.25;;;;;;;-146.26;100.00;59860.63;4987876;28;20041;-74
2023/04/07 04:26:10;;;;;;;22.88;12.85;;;;;;;-146.26;100.00;59860.63;4984971;28;20050;-73
2023/04/07 04:28:36;;;;;;;22.52;14.98;;;;;;;-146.26;100.00;59860.63;4986332;28;20034;-75
2023/04/07 04:31:01;;;;;;;19.98;13.73;;;;;;;-146.26;100.00;59860.63;4987562;28;20030;-76
2023/04/07 04:33:27;;;;;;;20.77;14.93;;;;;;;-146.26;100.00;59860.63;4987459;28;20045;-74
2023/04/07 04:35:52;;;;;;;17.80;13.23;;;;;;;-146.26;100.00;59860.63;4986712;28;20042;-76
2023/04/07 04:38:18;;;;;;;22.92;14.85;;;;;;;-146.26;100.00;59860.63;4986740;28;20039;-76
2023/04/07 04:40:44;;;;;;;30.92;14.13;;;;;;;-146.26;100.00;59860.63;4986737;28;20046;-77
2023/04/07 04:43:09;;;;;;;22.92;16.17;;;;;;;-146.26;100.00;59860.63;4983908;28;20030;-75
2023/04/07 04:45:36;;;;;;;18.58;13.82;;;;;;;-146.26;100.00;59860.63;4985263;28;20088;-75
2023/04/07 04:48:01;;;;;;;22.83;14.60;;;;;;;-146.26;100.00;59860.63;4984689;28;20061;-74
2023/04/07 04:50:27;;;;;;;33.67;15.13;;;;;;;-146.26;100.00;59860.63;4984247;28;20050;-74
2023/04/07 04:52:52;;;;;;;18.90;13.45;;;;;;;-146.26;100.00;59860.63;4984778;28;20069;-73
2023/04/07 04:55:18;;;;;;;24.02;12.90;;;;;;;-146.26;100.00;59860.63;4981194;28;20510;-71
2023/04/07 04:57:44;;;;;;;30.80;16.38;;;;;;;-146.26;100.00;59860.63;4984096;28;20069;-71
2023/04/07 05:00:10;;;;;;;29.02;14.23;;;;;;;-146.26;100.00;59860.63;4980550;28;20054;-70
2023/04/07 05:02:36;;;;;;;24.83;15.40;;;;;;;-146.26;100.00;59860.63;5014534;28;20043;-70
2023/04/07 05:05:01;;;;;;;18.02;11.65;;;;;;;-146.26;100.00;59860.63;4986904;28;20046;-71
2023/04/07 05:07:27;;;;;;;21.17;14.15;;;;;;;-146.26;100.00;59860.63;4986618;28;20054;-71
2023/04/07 05:09:52;;;;;;;17.20;12.40;;;;;;;-146.26;100.00;59860.63;4979799;28;20039;-71
2023/04/07 05:12:18;;;;;;;23.40;12.57;;;;;;;-146.26;100.00;59860.63;4984610;28;20046;-72
2023/04/07 05:14:43;;;;;;;17.00;11.63;;;;;;;-146.26;100.00;59860.63;4983269;28;20061;-72
2023/04/07 05:17:09;;;;;;;17.45;11.52;;;;;;;-146.26;100.00;59860.63;4982056;28;20061;-69
2023/04/07 05:19:34;;;;;;;19.63;13.02;;;;;;;-146.26;100.00;59860.63;4982420;28;20042;-70
2023/04/07 05:22:00;;;;;;;18.23;11.93;;;;;;;-146.26;100.00;59860.63;4987234;28;20026;-69
2023/04/07 05:24:27;;;;;;;16.98;14.80;;;;;;;-146.26;100.00;59860.63;4982775;28;20057;-69
2023/04/07 05:26:53;;;;;;;27.48;14.23;;;;;;;-146.26;100.00;59860.63;4984661;28;20058;-69
2023/04/07 05:29:19;;;;;;;18.45;12.80;;;;;;;-146.26;100.00;59860.63;4989301;28;20054;-70
2023/04/07 05:31:44;;;;;;;21.45;12.10;;;;;;;-146.26;100.00;59860.63;4981552;28;20077;-70
2023/04/07 05:34:10;;;;;;;18.38;13.48;;;;;;;-146.26;100.00;59860.63;4990799;28;20029;-70
2023/04/07 05:36:35;;;;;;;22.10;13.48;;;;;;;-146.26;100.00;59860.63;4987367;28;20804;-71
2023/04/07 05:39:01;;;;;;;17.58;12.77;;;;;;;-146.26;100.00;59860.63;4987885;28;20057;-70
2023/04/07 05:41:26;;;;;;;31.42;12.98;;;;;;;-146.26;100.00;59860.63;4983476;28;20058;-70
2023/04/07 05:43:52;;;;;;;20.92;13.65;;;;;;;-146.26;100.00;59860.63;4987997;28;20549;-70
2023/04/07 05:46:17;;;;;;;20.08;13.80;;;;;;;-146.26;100.00;59860.63;4989651;28;20026;-71
2023/04/07 05:48:43;;;;;;;20.92;14.55;;;;;;;-146.26;100.00;59860.63;4991089;28;20038;-71
2023/04/07 05:51:08;;;;;;;20.05;13.98;;;;;;;-146.26;100.00;59860.63;4988824;28;20062;-71
2023/04/07 05:53:34;;;;;;;20.60;13.98;;;;;;;-146.26;100.00;59860.63;4989324;28;20136;-70
2023/04/07 05:56:00;;;;;;;15.52;13.18;;;;;;;-146.26;100.00;59860.63;4989521;28;20101;-71
2023/04/07 05:58:26;;;;;;;22.00;14.48;;;;;;;-146.26;100.00;59860.63;4990022;28;20034;-70
2023/04/07 06:00:52;;;;;;;20.92;13.07;;;;;;;-146.26;100.00;59860.63;4988537;28;20121;-73
2023/04/07 06:03:18;;;;;;;21.58;14.30;;;;;;;-146.26;100.00;59860.63;4989123;28;20158;-70
2023/04/07 06:05:45;;;;;;;23.15;15.27;;;;;;;-146.26;100.00;59860.63;4984625;28;20050;-71
2023/04/07 06:08:11;;;;;;;15.55;12.50;;;;;;;-146.26;100.00;59860.63;4987868;28;20797;-70
2023/04/07 06:10:36;;;;;;;18.88;13.55;;;;;;;-146.26;100.00;59860.63;4988760;28;20065;-70
2023/04/07 06:13:02;;;;;;;42.63;13.35;;;;;;;-146.26;100.00;59860.63;4987980;28;20042;-70
2023/04/07 06:15:27;;;;;;;32.67;20.52;;;;;;;-146.26;100.00;59860.63;4988893;28;20054;-70
2023/04/07 06:17:53;;;;;;;17.13;12.57;;;;;;;-146.26;100.00;59860.63;4986498;28;20054;-70
2023/04/07 06:20:21;;;;;;;40.20;13.23;;;;;;;-146.26;100.00;59860.63;4983284;28;20050;-71
2023/04/07 06:22:47;;;;;;;25.23;20.88;;;;;;;-146.26;100.00;59860.63;5020274;28;20034;-69
2023/04/07 06:25:13;;;;;;;29.10;21.50;;;;;;;-146.26;100.00;59860.63;4987482;28;20033;-71
2023/04/07 06:27:38;;;;;;;26.30;20.90;;;;;;;-146.26;100.00;59860.63;4989869;28;20474;-71
2023/04/07 06:30:06;;;;;;;24.98;19.95;;;;;;;-146.26;100.00;59860.63;4988192;28;20039;-71
2023/04/07 06:32:32;;;;;;;30.95;21.90;;;;;;;-146.26;100.00;59860.63;4981089;28;20046;-73
2023/04/07 06:34:57;;;;;;;22.58;13.57;;;;;;;-146.26;100.00;59860.63;4979833;28;20069;-71
2023/04/07 06:37:29;;;;;;;28.73;21.70;;;;;;;-146.26;100.00;59860.63;4987524;28;20821;-71
2023/04/07 06:39:55;;;;;;;30.08;22.35;;;;;;;-146.26;100.00;59860.63;4989741;28;20038;-70
2023/04/07 06:42:20;;;;;;;29.17;20.98;;;;;;;-146.26;100.00;59860.63;4988929;28;20660;-71
2023/04/07 06:44:47;;;;;;;34.08;22.40;;;;;;;-146.26;100.00;59860.63;4987855;28;20057;-73
2023/04/07 06:47:12;;;;;;;27.40;21.63;;;;;;;-146.26;100.00;59860.63;4988240;28;20057;-74
2023/04/07 06:49:38;;;;;;;28.40;20.48;;;;;;;-146.26;100.00;59860.63;4986452;28;20042;-74
2023/04/07 06:52:04;;;;;;;28.63;20.77;;;;;;;-146.26;100.00;59860.63;4986752;28;20120;-75
2023/04/07 06:54:30;;;;;;;27.77;20.10;;;;;;;-146.26;100.00;59860.63;4987247;28;20042;-74
2023/04/07 06:56:56;;;;;;;29.83;22.17;;;;;;;-146.26;100.00;59860.63;4992292;28;20487;-74
2023/04/07 06:59:21;;;;;;;28.83;20.02;;;;;;;-146.26;100.00;59860.63;4993734;28;20137;-73
2023/04/07 07:01:48;;;;;;;30.10;21.13;;;;;;;-146.26;100.00;59860.63;4985319;28;20077;-74
2023/04/07 07:04:13;;;;;;;27.92;21.40;;;;;;;-146.26;100.00;59860.63;4990704;28;20340;-74
2023/04/07 07:06:39;;;;;;;27.23;21.10;;;;;;;-146.26;100.00;59860.63;4988634;28;20036;-77
2023/04/07 07:09:04;;;;;;;27.38;20.67;;;;;;;-146.26;100.00;59860.63;4988208;28;20137;-74
2023/04/07 07:11:30;;;;;;;26.63;21.02;;;;;;;-146.26;100.00;59860.63;4988585;28;20324;-75
2023/04/07 07:13:55;;;;;;;27.30;21.23;;;;;;;-146.26;100.00;59860.63;4987447;28;20066;-73
2023/04/07 07:16:22;;;;;;;26.63;20.90;;;;;;;-146.26;100.00;59860.63;4978217;28;20502;-73
2023/04/07 07:18:48;;;;;;;31.27;21.73;;;;;;;-146.26;100.00;59860.63;4987721;28;20069;-73
2023/04/07 07:21:14;;;;;;;27.38;19.77;;;;;;;-146.26;100.00;59860.63;4985797;28;20058;-73
2023/04/07 07:23:39;;;;;;;39.90;21.75;;;;;;;-146.26;100.00;59860.63;4988791;28;20494;-73
2023/04/07 07:26:05;;;;;;;28.73;22.55;;;;;;;-146.26;100.00;59860.63;4987821;28;20129;-73
2023/04/07 07:28:30;;;;;;;28.50;21.45;;;;;;;-146.26;100.00;59860.63;4988602;28;20141;-75
2023/04/07 07:30:56;;;;;;;27.98;21.58;;;;;;;-146.26;100.00;59860.63;4982395;28;20030;-75
2023/04/07 07:33:21;;;;;;;33.65;20.92;;;;;;;-146.26;100.00;59860.63;5003270;28;20057;-75
2023/04/07 07:35:47;;;;;;;22.58;19.30;;;;;;;-146.26;100.00;59860.63;4988440;28;20463;-74
2023/04/07 07:38:13;;;;;;;38.08;22.63;;;;;;;-146.26;100.00;59860.63;4987240;28;20046;-76
2023/04/07 07:40:38;;;;;;;24.33;21.77;;;;;;;-146.26;100.00;59860.63;4987487;28;20498;-73
2023/04/07 07:43:04;;;;;;;31.10;21.00;;;;;;;-146.26;100.00;59860.63;4988570;28;20089;-73
2023/04/07 07:45:30;;;;;;;29.45;22.65;;;;;;;-146.26;100.00;59860.63;4980801;28;20050;-73
2023/04/07 07:47:56;;;;;;;29.50;20.80;;;;;;;-146.26;100.00;59860.63;4981804;28;20157;-73
2023/04/07 07:50:21;;;;;;;29.45;22.77;;;;;;;-146.26;100.00;59860.63;4979612;28;20046;-73
2023/04/07 07:52:47;;;;;;;32.35;21.90;;;;;;;-146.26;100.00;59860.63;4986564;28;20443;-73
2023/04/07 07:55:12;;;;;;;26.65;21.83;;;;;;;-146.26;100.00;59860.63;5018181;28;20069;-73
2023/04/07 07:57:38;;;;;;;32.03;21.48;;;;;;;-146.26;100.00;59860.63;4987866;28;20524;-72
2023/04/07 08:00:04;;;;;;;30.48;21.90;;;;;;;-146.26;100.00;59860.63;4983489;28;20499;-73
2023/04/07 08:02:32;;;;;;;27.55;20.45;;;;;;;-146.26;100.00;59860.63;4986635;28;20126;-72
2023/04/07 08:04:58;;;;;;;23.02;18.48;;;;;;;-146.26;100.00;59860.63;4994370;28;20575;-73
2023/04/07 08:07:24;;;;;;;27.55;21.90;;;;;;;-146.26;100.00;59860.63;4986967;28;20065;-73
2023/04/07 08:09:49;;;;;;;31.10;20.77;;;;;;;-146.26;100.00;59860.63;4988174;28;20061;-74
2023/04/07 08:12:15;;;;;;;26.15;20.15;;;;;;;-146.26;100.00;59860.63;4982876;28;20070;-74
2023/04/07 08:14:40;;;;;;;27.35;20.90;;;;;;;-146.26;100.00;59860.63;4985987;28;20569;-75
2023/04/07 08:17:06;;;;;;;27.90;21.13;;;;;;;-146.26;100.00;59860.63;4985311;28;20498;-73
2023/04/07 08:19:31;;;;;;;25.50;17.55;;;;;;;-146.26;100.00;59860.63;4978345;28;20121;-73
2023/04/07 08:21:57;;;;;;;20.80;17.02;;;;;;;-146.26;100.00;59860.63;4987482;28;20116;-73
2023/04/07 08:24:22;;;;;;;19.70;17.60;;;;;;;-146.26;100.00;59860.63;4987013;28;20039;-73
2023/04/07 08:26:48;;;;;;;19.58;16.20;;;;;;;-146.26;100.00;59860.63;4984494;28;20562;-73
2023/04/07 08:29:14;;;;;;;21.15;15.07;;;;;;;-146.26;100.00;59860.63;4987027;28;20070;-73
2023/04/07 08:31:40;;;;;;;20.88;15.73;;;;;;;-146.26;100.00;59860.63;5018183;28;20077;-73
2023/04/07 08:34:05;;;;;;;25.20;15.43;;;;;;;-146.26;100.00;59860.63;4987292;28;20069;-72
2023/04/07 08:36:31;;;;;;;21.55;12.57;;;;;;;-146.26;100.00;59860.63;4987248;28;20046;-73
2023/04/07 08:39:00;;;;;;;18.70;12.60;;;;;;;-146.26;100.00;59860.63;4985166;28;20054;-73
2023/04/07 08:41:38;;;;;;;19.02;14.15;;;;;;;-146.26;100.00;59860.63;4982423;28;20043;-73
2023/04/07 08:44:06;;;;;;;25.58;14.07;;;;;;;-146.26;100.00;59860.63;4985188;28;20854;-73
2023/04/07 08:46:32;;;;;;;18.73;14.02;;;;;;;-146.26;100.00;59860.63;4986866;28;20026;-73
2023/04/07 08:49:00;;;;;;;20.10;15.75;;;;;;;-146.26;100.00;59860.63;4985142;28;20423;-73
2023/04/07 08:51:30;;;;;;;15.00;12.57;;;;;;;-146.26;100.00;59860.63;4984353;28;20043;-73
2023/04/07 08:54:12;;;;;;;20.85;14.68;;;;;;;-146.26;100.00;59860.63;4979530;28;20174;-73
2023/04/07 08:56:42;;;;;;;16.65;14.27;;;;;;;-146.26;100.00;59860.63;4983643;28;20050;-73
2023/04/07 08:59:09;;;;;;;17.45;14.10;;;;;;;-146.26;100.00;59860.63;4984643;28;20049;-72
2023/04/07 09:01:36;;;;;;;18.60;13.70;;;;;;;-146.26;100.00;59860.63;4981474;28;20104;-72
2023/04/07 09:04:03;;;;;;;18.90;14.50;;;;;;;-146.26;100.00;59860.63;4985760;28;20069;-71
2023/04/07 09:06:32;;;;;;;24.17;12.25;;;;;;;-146.26;100.00;59860.63;4986166;28;20145;-75
2023/04/07 09:09:00;;;;;;;17.50;13.00;;;;;;;-146.26;100.00;59860.63;4981111;28;20137;-75
2023/04/07 09:11:27;;;;;;;13.05;11.63;;;;;;;-146.26;100.00;59860.63;4981612;28;20069;-75
2023/04/07 09:13:54;;;;;;;15.05;13.00;;;;;;;-146.26;100.00;59860.63;4982305;28;20061;-75
2023/04/07 09:16:19;;;;;;;15.40;11.85;;;;;;;-146.26;100.00;59860.63;4982858;28;20449;-74
2023/04/07 09:18:45;;;;;;;14.40;11.00;;;;;;;-146.26;100.00;59860.63;4979542;28;20031;-73
2023/04/07 09:21:11;;;;;;;15.50;11.65;;;;;;;-146.26;100.00;59860.63;4985414;28;20499;-74
2023/04/07 09:23:39;;;;;;;14.65;11.55;;;;;;;-146.26;100.00;59860.63;4980877;28;20069;-73
2023/04/07 09:26:16;;;;;;;12.65;10.55;;;;;;;-146.26;100.00;59860.63;4980577;28;20112;-73
2023/04/07 09:28:45;;;;;;;13.88;10.98;;;;;;;-146.26;100.00;59860.63;4984346;28;20046;-73
2023/04/07 09:31:11;;;;;;;14.88;11.15;;;;;;;-146.26;100.00;59860.63;4980509;28;20041;-73
2023/04/07 09:33:36;;;;;;;15.75;12.10;;;;;;;-146.26;100.00;59860.63;4983627;28;20042;-74
2023/04/07 09:36:05;;;;;;;15.18;10.68;;;;;;;-146.26;100.00;59860.63;4983022;28;20380;-75
2023/04/07 09:38:35;;;;;;;20.02;12.10;;;;;;;-146.26;100.00;59860.63;4982153;28;20116;-75
2023/04/07 09:41:10;;;;;;;17.58;12.25;;;;;;;-146.26;100.00;59860.63;4981951;28;20145;-74
2023/04/07 09:43:41;;;;;;;12.80;11.23;;;;;;;-146.26;100.00;59860.63;4983638;28;20418;-75
2023/04/07 09:46:13;;;;;;;18.33;11.60;;;;;;;-146.26;100.00;59860.63;4982848;28;20093;-73
2023/04/07 09:48:42;;;;;;;15.17;11.13;;;;;;;-146.26;100.00;59860.63;4985158;28;20100;-75
2023/04/07 09:51:12;;;;;;;14.55;12.45;;;;;;;-146.26;100.00;59860.63;4983058;28;20110;-74
2023/04/07 09:53:42;;;;;;;16.15;13.77;;;;;;;-146.26;100.00;59860.63;4986122;28;20510;-74
2023/04/07 09:56:10;;;;;;;18.88;12.90;;;;;;;-146.26;100.00;59860.63;4984793;28;20045;-74
2023/04/07 09:58:39;;;;;;;16.08;12.07;;;;;;;-146.26;100.00;59860.63;4984613;28;20577;-75
2023/04/07 10:01:08;;;;;;;14.50;11.70;;;;;;;-146.26;100.00;59860.63;4982632;28;20026;-74
2023/04/07 10:03:37;;;;;;;21.85;13.73;;;;;;;-146.26;100.00;59860.63;4981323;28;20077;-71
2023/04/07 10:06:05;;;;;;;15.73;12.70;;;;;;;-146.26;100.00;59860.63;4981985;28;20050;-73
2023/04/07 10:08:32;;;;;;;13.90;11.25;;;;;;;-146.26;100.00;59860.63;4982177;28;20054;-72
2023/04/07 10:11:02;;;;;;;15.40;11.43;;;;;;;-146.26;100.00;59860.63;4981609;28;20560;-72
2023/04/07 10:13:29;;;;;;;18.25;12.27;;;;;;;-146.26;100.00;59860.63;4979949;28;20474;-71
2023/04/07 10:15:56;;;;;;;12.77;11.00;;;;;;;-146.26;100.00;59860.63;4984785;28;20120;-71
2023/04/07 10:18:34;;;;;;;14.45;11.30;;;;;;;-146.26;100.00;59860.63;4979862;28;20050;-71
2023/04/07 10:21:03;;;;;;;13.98;11.23;;;;;;;-146.26;100.00;59860.63;4986966;28;20105;-71
2023/04/07 10:24:21;;;;;;;14.80;10.20;;;;;;;-146.26;100.00;59860.63;4988679;28;20042;-70
2023/04/07 10:26:53;;;;;;;12.85;11.60;;;;;;;-146.26;100.00;59860.63;4986111;28;20105;-71
2023/04/07 10:29:21;;;;;;;15.18;11.35;;;;;;;-146.26;100.00;59860.63;4986914;28;20050;-71
2023/04/07 10:31:47;;;;;;;12.88;11.20;;;;;;;-146.26;100.00;59860.63;4984394;28;20061;-71
2023/04/07 10:34:12;;;;;;;18.30;12.63;;;;;;;-146.26;100.00;59860.63;4983331;28;20116;-71
2023/04/07 10:37:13;;;;;;;16.02;11.93;;;;;;;-146.26;100.00;59860.63;4984689;28;20030;-71
2023/04/07 10:39:39;;;;;;;14.73;13.18;;;;;;;-146.26;100.00;59860.63;4981011;28;20506;-71
2023/04/07 10:42:05;;;;;;;14.43;12.45;;;;;;;-146.26;100.00;59860.63;4984237;28;20177;-74
2023/04/07 10:44:39;;;;;;;20.92;12.98;;;;;;;-146.26;100.00;59860.63;4984970;28;20059;-74
2023/04/07 10:47:05;;;;;;;18.02;12.98;;;;;;;-146.26;100.00;59860.63;4980970;28;20054;-74
2023/04/07 10:49:34;;;;;;;13.93;12.13;;;;;;;-146.26;100.00;59860.63;4994257;28;20040;-69
2023/04/07 10:52:21;;;;;;;12.65;10.02;;;;;;;-146.26;100.00;59860.63;4986755;28;20108;-72
2023/04/07 10:54:47;;;;;;;15.02;12.45;;;;;;;-146.26;100.00;59860.63;4983305;28;20058;-74
2023/04/07 10:57:17;;;;;;;18.63;13.63;;;;;;;-146.26;100.00;59860.63;4983312;28;20871;-75